createdAt,value
2023-02-05T00:00:49.694Z,94736.56
2023-02-05T00:01:46.509Z,94657.28
2023-02-05T00:02:43.392Z,94740.78
2023-02-05T00:03:40.809Z,94626.13
2023-02-05T00:04:38.254Z,94760.56
2023-02-05T00:05:35.475Z,94752.66
2023-02-05T00:06:32.589Z,94769.66
2023-02-05T00:07:29.365Z,94741.78
2023-02-05T00:08:27.612Z,94691.06
2023-02-05T00:09:24.403Z,94698.09
2023-02-05T00:10:21.153Z,94790.22
2023-02-05T00:11:18.068Z,94827.88
2023-02-05T00:12:15.156Z,94668.69
2023-02-05T00:13:12.041Z,94748.34
2023-02-05T00:14:08.847Z,94780.19
2023-02-05T00:15:06.388Z,94780.63
2023-02-05T00:16:10.864Z,94755.72
2023-02-05T00:17:07.736Z,94714.44
2023-02-05T00:18:04.630Z,94699.91
2023-02-05T00:19:01.510Z,94690.41
2023-02-05T00:19:58.241Z,94655.78
2023-02-05T00:20:55.007Z,94440.16
2023-02-05T00:21:51.768Z,94667.91
2023-02-05T00:22:48.610Z,94773.81
2023-02-05T00:23:45.839Z,94319.59
2023-02-05T00:24:42.672Z,94585.19
2023-02-05T00:25:39.445Z,94733.31
2023-02-05T00:26:36.398Z,94759.72
2023-02-05T00:27:34.038Z,94780.63
2023-02-05T00:28:36.172Z,94803.44
2023-02-05T00:29:33.082Z,94650.63
2023-02-05T00:30:29.902Z,94469.97
2023-02-05T00:31:26.936Z,94798.97
2023-02-05T00:32:23.905Z,94777.84
2023-02-05T00:33:22.025Z,94801.72
2023-02-05T00:34:19.497Z,94665.06
2023-02-05T00:35:16.434Z,94487.69
2023-02-05T00:36:14.008Z,94744.59
2023-02-05T00:37:11.360Z,94645.31
2023-02-05T00:38:08.103Z,94644.13
2023-02-05T00:39:04.996Z,94800.72
2023-02-05T00:40:01.872Z,94758.66
2023-02-05T00:40:58.865Z,94654.75
2023-02-05T00:41:55.626Z,94649.94
2023-02-05T00:42:52.430Z,94799.94
2023-02-05T00:43:49.246Z,94686.97
2023-02-05T00:44:46.059Z,94808.97
2023-02-05T00:45:42.923Z,94662.09
2023-02-05T00:46:39.760Z,94740.03
2023-02-05T00:47:36.574Z,94691.91
2023-02-05T00:48:33.847Z,94806.47
2023-02-05T00:49:30.683Z,94607.19
2023-02-05T00:50:27.579Z,94776.44
2023-02-05T00:51:24.472Z,94664.03
2023-02-05T00:52:21.406Z,94662.84
2023-02-05T00:53:19.682Z,94782.81
2023-02-05T00:54:16.526Z,94776.09
2023-02-05T00:55:15.888Z,94786.63
2023-02-05T00:56:12.889Z,94784.00
2023-02-05T00:57:09.924Z,94784.94
2023-02-05T00:58:06.949Z,94803.03
2023-02-05T00:59:04.206Z,94594.22
2023-02-05T01:00:01.240Z,94810.47
2023-02-05T01:00:58.290Z,94557.97
2023-02-05T01:01:55.145Z,94637.34
2023-02-05T01:02:51.954Z,94811.03
2023-02-05T01:03:48.804Z,94766.81
2023-02-05T01:04:45.586Z,94815.56
2023-02-05T01:05:43.694Z,94807.75
2023-02-05T01:06:40.586Z,94802.72
2023-02-05T01:07:37.373Z,94689.31
2023-02-05T01:08:34.610Z,94746.69
2023-02-05T01:09:31.430Z,94451.03
2023-02-05T01:10:28.520Z,94808.13
2023-02-05T01:11:25.563Z,94814.00
2023-02-05T01:12:22.334Z,94625.00
2023-02-05T01:13:19.454Z,94803.22
2023-02-05T01:14:16.342Z,94805.00
2023-02-05T01:15:14.322Z,94615.19
2023-02-05T01:16:11.143Z,94678.97
2023-02-05T01:17:08.089Z,94790.06
2023-02-05T01:18:04.920Z,94527.25
2023-02-05T01:19:01.929Z,94628.56
2023-02-05T01:19:58.680Z,94820.94
2023-02-05T01:20:55.664Z,94647.16
2023-02-05T01:21:52.462Z,94719.13
2023-02-05T01:22:49.608Z,94795.75
2023-02-05T01:23:46.399Z,94818.88
2023-02-05T01:24:43.146Z,94799.00
2023-02-05T01:25:40.100Z,94694.06
2023-02-05T01:26:36.924Z,94651.44
2023-02-05T01:27:34.987Z,94786.66
2023-02-05T01:28:32.077Z,94667.84
2023-02-05T01:29:29.457Z,94721.09
2023-02-05T01:30:26.331Z,94460.28
2023-02-05T01:31:23.885Z,94830.28
2023-02-05T01:32:21.003Z,94838.84
2023-02-05T01:33:18.430Z,94741.69
2023-02-05T01:34:15.196Z,94722.63
2023-02-05T01:36:26.384Z,94766.13
2023-02-05T01:37:23.479Z,94802.56
2023-02-05T01:38:20.302Z,94718.03
2023-02-05T01:39:17.201Z,94842.16
2023-02-05T01:40:15.705Z,94808.91
2023-02-05T01:41:13.753Z,94524.41
2023-02-05T01:42:21.583Z,94827.63
2023-02-05T01:43:19.002Z,94714.97
2023-02-05T01:44:18.813Z,94823.34
2023-02-05T01:45:29.666Z,94806.91
2023-02-05T01:46:31.247Z,94693.47
2023-02-05T01:47:27.985Z,94717.97
2023-02-05T01:48:29.329Z,94802.19
2023-02-05T01:49:43.895Z,94718.63
2023-02-05T01:50:47.655Z,94667.53
2023-02-05T01:51:47.930Z,94826.47
2023-02-05T01:52:46.069Z,94600.63
2023-02-05T01:53:45.863Z,94793.53
2023-02-05T01:54:48.924Z,94811.47
2023-02-05T01:55:55.242Z,94705.63
2023-02-05T01:57:00.290Z,94841.41
2023-02-05T01:58:00.464Z,94840.81
2023-02-05T01:59:04.031Z,94747.44
2023-02-05T02:00:00.980Z,94574.59
2023-02-05T02:00:58.560Z,94722.94
2023-02-05T02:01:56.230Z,94377.75
2023-02-05T02:02:53.917Z,94708.28
2023-02-05T02:03:53.906Z,94597.34
2023-02-05T02:04:57.909Z,94739.38
2023-02-05T02:05:58.052Z,94863.16
2023-02-05T02:06:54.784Z,94857.31
2023-02-05T02:07:51.625Z,94574.16
2023-02-05T02:08:48.447Z,94829.06
2023-02-05T02:09:48.447Z,94747.72
2023-02-05T02:10:48.539Z,94786.44
2023-02-05T02:11:45.638Z,94831.50
2023-02-05T02:12:46.631Z,94744.28
2023-02-05T02:13:47.890Z,94831.69
2023-02-05T02:14:51.360Z,94847.34
2023-02-05T02:15:50.770Z,94621.16
2023-02-05T02:16:47.905Z,94850.09
2023-02-05T02:17:50.445Z,94602.88
2023-02-05T02:18:47.837Z,94851.13
2023-02-05T02:20:06.967Z,94854.31
2023-02-05T02:21:19.762Z,94840.13
2023-02-05T02:22:28.966Z,94841.16
2023-02-05T02:23:47.529Z,94658.59
2023-02-05T02:25:03.028Z,94843.00
2023-02-05T02:26:32.095Z,94833.31
2023-02-05T02:28:01.095Z,94836.19
2023-02-05T02:29:04.126Z,94762.59
2023-02-05T02:30:20.506Z,94865.06
2023-02-05T02:31:23.827Z,94782.84
2023-02-05T02:32:41.509Z,94837.88
2023-02-05T02:33:54.318Z,94834.94
2023-02-05T02:35:01.084Z,94803.72
2023-02-05T02:36:12.351Z,94784.09
2023-02-05T02:37:25.738Z,94755.44
2023-02-05T02:38:29.270Z,94732.25
2023-02-05T02:39:36.957Z,94504.03
2023-02-05T02:41:04.241Z,94757.31
2023-02-05T02:42:14.950Z,94854.34
2023-02-05T02:43:21.475Z,94726.34
2023-02-05T02:44:42.794Z,94843.97
2023-02-05T02:45:53.168Z,94578.94
2023-02-05T02:46:58.102Z,94845.28
2023-02-05T02:48:00.469Z,94759.78
2023-02-05T02:49:03.908Z,94854.97
2023-02-05T02:50:06.723Z,94844.06
2023-02-05T02:51:09.339Z,94895.81
2023-02-05T02:52:11.156Z,94643.63
2023-02-05T02:53:35.029Z,94862.53
2023-02-05T02:54:35.923Z,94772.72
2023-02-05T02:55:39.413Z,94820.38
2023-02-05T02:56:40.056Z,94854.28
2023-02-05T02:57:43.429Z,94674.97
2023-02-05T02:58:51.633Z,94855.13
2023-02-05T02:59:53.140Z,94879.75
2023-02-05T03:00:54.298Z,94898.75
2023-02-05T03:01:57.508Z,94746.44
2023-02-05T03:03:03.485Z,94848.06
2023-02-05T03:04:12.367Z,94818.34
2023-02-05T03:05:16.370Z,94778.06
2023-02-05T03:06:17.106Z,94908.66
2023-02-05T03:07:23.761Z,94866.72
2023-02-05T03:08:31.078Z,94766.22
2023-02-05T03:09:37.168Z,94884.81
2023-02-05T03:10:46.784Z,94884.19
2023-02-05T03:11:43.777Z,94911.16
2023-02-05T03:12:40.610Z,94825.22
2023-02-05T03:13:37.717Z,94792.63
2023-02-05T03:14:36.360Z,94646.94
2023-02-05T03:15:33.536Z,94757.38
2023-02-05T03:16:31.257Z,94686.56
2023-02-05T03:17:30.220Z,94881.09
2023-02-05T03:18:27.195Z,94815.28
2023-02-05T03:19:24.323Z,94748.06
2023-02-05T03:20:24.552Z,94836.50
2023-02-05T03:21:43.480Z,94858.56
2023-02-05T03:22:40.334Z,94810.72
2023-02-05T03:23:37.256Z,94471.75
2023-02-05T03:24:34.196Z,94777.59
2023-02-05T03:25:31.019Z,94904.06
2023-02-05T03:26:36.713Z,94804.41
2023-02-05T03:27:34.338Z,94739.63
2023-02-05T03:28:31.874Z,94819.31
2023-02-05T03:29:33.812Z,94896.31
2023-02-05T03:30:43.987Z,94708.53
2023-02-05T03:32:15.187Z,94903.91
2023-02-05T03:33:21.060Z,94860.69
2023-02-05T03:34:41.525Z,94888.88
2023-02-05T03:35:56.063Z,94786.00
2023-02-05T03:37:01.709Z,94822.72
2023-02-05T03:38:08.960Z,94845.31
2023-02-05T03:39:29.218Z,94713.25
2023-02-05T03:40:37.969Z,94870.44
2023-02-05T03:41:55.781Z,94872.72
2023-02-05T03:43:07.455Z,94597.97
2023-02-05T03:44:38.634Z,94928.84
2023-02-05T03:45:52.906Z,94878.31
2023-02-05T03:47:25.133Z,94857.28
2023-02-05T03:48:39.085Z,94865.69
2023-02-05T03:49:43.866Z,94779.31
2023-02-05T03:51:11.803Z,94875.56
2023-02-05T03:52:18.776Z,94820.75
2023-02-05T03:53:30.668Z,94873.72
2023-02-05T03:55:02.448Z,94879.78
2023-02-05T03:56:13.689Z,94799.34
2023-02-05T03:57:45.093Z,94896.56
2023-02-05T03:58:47.839Z,94735.44
2023-02-05T03:59:47.302Z,94837.78
2023-02-05T04:00:45.401Z,94885.06
2023-02-05T04:01:44.817Z,94771.72
2023-02-05T04:02:43.466Z,94884.28
2023-02-05T04:03:40.687Z,94833.22
2023-02-05T04:04:37.612Z,94856.50
2023-02-05T04:05:34.734Z,94895.41
2023-02-05T04:06:31.687Z,94861.38
2023-02-05T04:07:28.605Z,94886.72
2023-02-05T04:08:25.564Z,94801.25
2023-02-05T04:09:22.373Z,94840.25
2023-02-05T04:10:19.959Z,94814.53
2023-02-05T04:11:16.748Z,94870.31
2023-02-05T04:12:13.626Z,94714.59
2023-02-05T04:13:11.525Z,94787.00
2023-02-05T04:14:09.143Z,94687.00
2023-02-05T04:15:09.028Z,94914.75
2023-02-05T04:16:05.868Z,94912.81
2023-02-05T04:17:03.179Z,94879.94
2023-02-05T04:18:00.035Z,94922.38
2023-02-05T04:18:56.843Z,94924.13
2023-02-05T04:19:53.697Z,94915.59
2023-02-05T04:20:50.525Z,94930.78
2023-02-05T04:21:47.276Z,94933.34
2023-02-05T04:22:44.041Z,94929.69
2023-02-05T04:23:40.883Z,94925.63
2023-02-05T04:24:37.676Z,94930.78
2023-02-05T04:25:37.110Z,94930.91
2023-02-05T04:26:34.117Z,94897.31
2023-02-05T04:27:30.865Z,94815.63
2023-02-05T04:28:27.743Z,94800.56
2023-02-05T04:29:24.663Z,94925.91
2023-02-05T04:30:21.491Z,94820.22
2023-02-05T04:31:18.292Z,94829.44
2023-02-05T04:32:15.402Z,94801.13
2023-02-05T04:33:12.188Z,94914.72
2023-02-05T04:34:08.996Z,94876.22
2023-02-05T04:35:07.786Z,94888.47
2023-02-05T04:36:05.034Z,94795.00
2023-02-05T04:37:02.371Z,94954.50
2023-02-05T04:37:59.205Z,94938.63
2023-02-05T04:38:55.975Z,94855.44
2023-02-05T04:39:52.757Z,94871.16
2023-02-05T04:40:49.552Z,94842.94
2023-02-05T04:41:46.334Z,94927.53
2023-02-05T04:42:43.309Z,94744.50
2023-02-05T04:43:40.091Z,94810.19
2023-02-05T04:44:36.875Z,94864.09
2023-02-05T04:45:34.014Z,94925.91
2023-02-05T04:46:31.040Z,94904.75
2023-02-05T04:47:27.858Z,94916.41
2023-02-05T04:48:24.699Z,94921.97
2023-02-05T04:49:21.420Z,94847.69
2023-02-05T04:50:18.461Z,94926.19
2023-02-05T04:51:16.236Z,94876.69
2023-02-05T04:52:13.083Z,94904.75
2023-02-05T04:53:10.075Z,94864.63
2023-02-05T04:54:06.885Z,94913.34
2023-02-05T04:55:03.769Z,94914.22
2023-02-05T04:56:07.157Z,94911.25
2023-02-05T04:57:04.122Z,94853.53
2023-02-05T04:58:01.111Z,94940.66
2023-02-05T04:58:57.931Z,94880.22
2023-02-05T04:59:54.655Z,94857.31
2023-02-05T05:00:51.517Z,94919.81
2023-02-05T05:01:48.404Z,94847.28
2023-02-05T05:02:45.211Z,94954.78
2023-02-05T05:03:42.906Z,94780.75
2023-02-05T05:04:41.142Z,94916.81
2023-02-05T05:05:39.753Z,94943.25
2023-02-05T05:06:36.774Z,94944.59
2023-02-05T05:07:33.589Z,94884.41
2023-02-05T05:08:30.336Z,94825.34
2023-02-05T05:09:27.536Z,94937.91
2023-02-05T05:10:24.336Z,94936.75
2023-02-05T05:11:21.082Z,94889.16
2023-02-05T05:12:17.904Z,94777.34
2023-02-05T05:13:14.631Z,94958.19
2023-02-05T05:14:11.580Z,94885.50
2023-02-05T05:15:08.892Z,94958.44
2023-02-05T05:16:06.597Z,94845.53
2023-02-05T05:17:04.419Z,94936.31
2023-02-05T05:18:01.227Z,94895.16
2023-02-05T05:18:58.121Z,94866.13
2023-02-05T05:19:55.177Z,94931.56
2023-02-05T05:20:51.999Z,94983.38
2023-02-05T05:21:48.756Z,94966.84
2023-02-05T05:22:45.614Z,94942.56
2023-02-05T05:23:42.418Z,94989.09
2023-02-05T05:24:39.145Z,94983.38
2023-02-05T05:25:42.182Z,94830.50
2023-02-05T05:26:43.780Z,94982.84
2023-02-05T05:27:40.678Z,94898.53
2023-02-05T05:28:38.543Z,94950.31
2023-02-05T05:29:38.426Z,94986.09
2023-02-05T05:30:38.197Z,94872.47
2023-02-05T05:31:34.991Z,94949.63
2023-02-05T05:32:34.494Z,94743.91
2023-02-05T05:33:31.264Z,94750.50
2023-02-05T05:34:28.144Z,94837.25
2023-02-05T05:35:24.977Z,94995.59
2023-02-05T05:36:21.799Z,94974.16
2023-02-05T05:37:18.610Z,94989.09
2023-02-05T05:38:15.461Z,94845.38
2023-02-05T05:39:31.063Z,94983.38
2023-02-05T05:40:47.513Z,94910.03
2023-02-05T05:42:02.995Z,94981.16
2023-02-05T05:43:18.284Z,94906.31
2023-02-05T05:44:15.047Z,94949.31
2023-02-05T05:45:18.084Z,94854.31
2023-02-05T05:46:40.733Z,94983.38
2023-02-05T05:47:37.534Z,94895.50
2023-02-05T05:48:36.948Z,94852.16
2023-02-05T05:49:33.743Z,94708.72
2023-02-05T05:50:30.591Z,94909.91
2023-02-05T05:51:29.718Z,95009.44
2023-02-05T05:52:26.602Z,95024.34
2023-02-05T05:53:23.806Z,94963.31
2023-02-05T05:54:20.610Z,95016.19
2023-02-05T05:55:17.538Z,95016.19
2023-02-05T05:56:14.580Z,94989.38
2023-02-05T05:57:11.366Z,94988.53
2023-02-05T05:58:08.977Z,94810.47
2023-02-05T05:59:05.788Z,94989.34
2023-02-05T06:00:03.081Z,94934.16
2023-02-05T06:01:00.203Z,94847.81
2023-02-05T06:01:57.069Z,94716.97
2023-02-05T06:02:53.899Z,94991.53
2023-02-05T06:03:51.976Z,95046.19
2023-02-05T06:04:49.098Z,94984.22
2023-02-05T06:05:46.012Z,94994.22
2023-02-05T06:06:42.864Z,95003.19
2023-02-05T06:07:39.772Z,94933.47
2023-02-05T06:08:36.579Z,94985.13
2023-02-05T06:09:33.380Z,94997.63
2023-02-05T06:10:30.496Z,94968.97
2023-02-05T06:11:27.428Z,95018.91
2023-02-05T06:12:24.219Z,94806.59
2023-02-05T06:13:21.001Z,94949.75
2023-02-05T06:14:17.761Z,94849.34
2023-02-05T06:15:14.614Z,95049.84
2023-02-05T06:16:11.507Z,95020.66
2023-02-05T06:17:08.426Z,94940.25
2023-02-05T06:18:05.302Z,94978.44
2023-02-05T06:19:02.122Z,94943.78
2023-02-05T06:19:58.860Z,94932.13
2023-02-05T06:20:55.746Z,94914.34
2023-02-05T06:21:52.592Z,95033.00
2023-02-05T06:22:49.375Z,95040.06
2023-02-05T06:23:46.263Z,95073.75
2023-02-05T06:24:43.057Z,95028.38
2023-02-05T06:25:40.200Z,94969.38
2023-02-05T06:26:37.196Z,94946.63
2023-02-05T06:27:34.336Z,95044.66
2023-02-05T06:28:31.135Z,95032.16
2023-02-05T06:29:27.914Z,95065.88
2023-02-05T06:30:24.958Z,94999.50
2023-02-05T06:31:21.964Z,95055.81
2023-02-05T06:32:18.825Z,95036.81
2023-02-05T06:33:15.751Z,94754.13
2023-02-05T06:34:12.531Z,94852.44
2023-02-05T06:35:09.337Z,95002.22
2023-02-05T06:36:06.775Z,95021.91
2023-02-05T06:37:03.558Z,95022.16
2023-02-05T06:38:00.398Z,95060.44
2023-02-05T06:38:57.262Z,94929.66
2023-02-05T06:39:54.140Z,95054.72
2023-02-05T06:40:50.946Z,95062.75
2023-02-05T06:41:47.701Z,95091.63
2023-02-05T06:42:45.566Z,95102.50
2023-02-05T06:43:42.378Z,94977.91
2023-02-05T06:44:39.233Z,95011.28
2023-02-05T06:45:38.894Z,95081.19
2023-02-05T06:46:36.911Z,95077.09
2023-02-05T06:47:33.798Z,94978.06
2023-02-05T06:48:30.645Z,94974.84
2023-02-05T06:49:27.501Z,94846.41
2023-02-05T06:50:24.738Z,94972.81
2023-02-05T06:51:21.529Z,95087.41
2023-02-05T06:52:18.387Z,95086.22
2023-02-05T06:53:15.175Z,94933.63
2023-02-05T06:54:12.006Z,95052.75
2023-02-05T06:55:09.157Z,95082.16
2023-02-05T06:56:06.181Z,95063.84
2023-02-05T06:57:03.044Z,95053.03
2023-02-05T06:57:59.832Z,95008.09
2023-02-05T06:58:56.582Z,95090.09
2023-02-05T06:59:53.361Z,95073.44
2023-02-05T07:00:50.139Z,94995.41
2023-02-05T07:01:46.860Z,95074.81
2023-02-05T07:02:46.229Z,95013.81
2023-02-05T07:03:43.195Z,94945.34
2023-02-05T07:04:42.836Z,94937.38
2023-02-05T07:05:42.638Z,95064.34
2023-02-05T07:06:39.333Z,94934.25
2023-02-05T07:07:41.547Z,95011.88
2023-02-05T07:08:38.328Z,95108.34
2023-02-05T07:09:35.302Z,95148.66
2023-02-05T07:10:35.142Z,95099.09
2023-02-05T07:11:34.490Z,95041.94
2023-02-05T07:12:31.311Z,94957.06
2023-02-05T07:13:31.097Z,95096.78
2023-02-05T07:14:45.516Z,95116.63
2023-02-05T07:15:42.486Z,95000.47
2023-02-05T07:16:42.418Z,94860.03
2023-02-05T07:17:39.559Z,95123.16
2023-02-05T07:18:36.352Z,94961.84
2023-02-05T07:19:37.079Z,94947.66
2023-02-05T07:20:34.249Z,94964.00
2023-02-05T07:21:35.211Z,95129.69
2023-02-05T07:22:32.020Z,94962.53
2023-02-05T07:23:28.822Z,94976.16
2023-02-05T07:24:25.951Z,95136.25
2023-02-05T07:25:25.479Z,95139.94
2023-02-05T07:26:25.585Z,95057.38
2023-02-05T07:27:22.440Z,94905.38
2023-02-05T07:28:19.250Z,95132.13
2023-02-05T07:29:16.051Z,95007.34
2023-02-05T07:30:15.947Z,95125.28
2023-02-05T07:31:17.925Z,94963.03
2023-02-05T07:32:14.768Z,95132.09
2023-02-05T07:33:11.557Z,95054.34
2023-02-05T07:34:08.289Z,95035.97
2023-02-05T07:35:08.120Z,94976.28
2023-02-05T07:36:06.879Z,95077.78
2023-02-05T07:37:03.626Z,95114.16
2023-02-05T07:38:03.104Z,94944.28
2023-02-05T07:38:59.896Z,95145.41
2023-02-05T07:39:59.664Z,94891.66
2023-02-05T07:41:03.537Z,95122.59
2023-02-05T07:42:02.266Z,94968.97
2023-02-05T07:42:59.180Z,94536.28
2023-02-05T07:43:55.954Z,95089.50
2023-02-05T07:44:54.636Z,95132.34
2023-02-05T07:46:02.876Z,94985.00
2023-02-05T07:46:59.692Z,95159.28
2023-02-05T07:47:56.554Z,95123.41
2023-02-05T07:48:54.621Z,95130.19
2023-02-05T07:49:54.258Z,95038.31
2023-02-05T07:50:51.101Z,94916.38
2023-02-05T07:51:48.812Z,95024.34
2023-02-05T07:52:45.724Z,95114.31
2023-02-05T07:53:42.494Z,95053.63
2023-02-05T07:54:40.102Z,95070.47
2023-02-05T07:55:42.724Z,95001.84
2023-02-05T07:56:39.508Z,94962.63
2023-02-05T07:57:36.355Z,95144.59
2023-02-05T07:58:33.162Z,95150.81
2023-02-05T07:59:30.167Z,95158.44
2023-02-05T08:00:27.014Z,95138.47
2023-02-05T08:01:23.886Z,95121.22
2023-02-05T08:02:20.693Z,95069.38
2023-02-05T08:03:17.586Z,95097.63
2023-02-05T08:04:14.459Z,95195.38
2023-02-05T08:05:11.351Z,95138.63
2023-02-05T08:06:11.819Z,95148.94
2023-02-05T08:07:12.608Z,95149.28
2023-02-05T08:08:12.086Z,95137.22
2023-02-05T08:09:09.285Z,95154.03
2023-02-05T08:10:06.561Z,95095.44
2023-02-05T08:11:05.877Z,95147.84
2023-02-05T08:12:02.677Z,95171.41
2023-02-05T08:12:59.555Z,95173.84
2023-02-05T08:13:56.386Z,95168.34
2023-02-05T08:14:53.172Z,94975.78
2023-02-05T08:15:49.941Z,95165.22
2023-02-05T08:16:46.977Z,95046.44
2023-02-05T08:17:43.789Z,95150.72
2023-02-05T08:18:40.609Z,95179.75
2023-02-05T08:19:37.518Z,95179.06
2023-02-05T08:20:34.338Z,95037.13
2023-02-05T08:21:31.156Z,95157.03
2023-02-05T08:22:27.991Z,95010.34
2023-02-05T08:23:25.090Z,95146.72
2023-02-05T08:24:21.862Z,95009.44
2023-02-05T08:25:18.831Z,95197.81
2023-02-05T08:26:15.874Z,94978.31
2023-02-05T08:27:16.960Z,94952.53
2023-02-05T08:28:14.402Z,95154.44
2023-02-05T08:29:11.715Z,95169.00
2023-02-05T08:30:12.626Z,95163.94
2023-02-05T08:31:15.113Z,95161.88
2023-02-05T08:32:11.933Z,95182.72
2023-02-05T08:33:08.731Z,95222.44
2023-02-05T08:34:06.060Z,95021.06
2023-02-05T08:35:02.935Z,95019.59
2023-02-05T08:35:59.816Z,95051.63
2023-02-05T08:36:57.769Z,95024.25
2023-02-05T08:37:54.557Z,94893.56
2023-02-05T08:38:51.391Z,95183.84
2023-02-05T08:39:49.456Z,94987.66
2023-02-05T08:40:46.272Z,95059.41
2023-02-05T08:41:43.126Z,95165.97
2023-02-05T08:42:40.385Z,95173.97
2023-02-05T08:43:37.184Z,94995.69
2023-02-05T08:44:34.432Z,95053.97
2023-02-05T08:45:31.784Z,95007.94
2023-02-05T08:46:37.369Z,95203.56
2023-02-05T08:47:40.712Z,95073.41
2023-02-05T08:48:37.652Z,95201.38
2023-02-05T08:49:34.652Z,95094.66
2023-02-05T08:50:32.497Z,95167.25
2023-02-05T08:51:29.519Z,95031.06
2023-02-05T08:52:26.353Z,95173.16
2023-02-05T08:53:23.263Z,95193.41
2023-02-05T08:54:20.583Z,95174.72
2023-02-05T08:55:20.366Z,95177.41
2023-02-05T08:56:19.964Z,95045.94
2023-02-05T08:57:16.987Z,95029.88
2023-02-05T08:58:13.792Z,95072.47
2023-02-05T08:59:11.930Z,95021.50
2023-02-05T09:00:09.478Z,95085.66
2023-02-05T09:01:11.882Z,95045.75
2023-02-05T09:02:15.743Z,95141.53
2023-02-05T09:03:14.721Z,95127.44
2023-02-05T09:04:15.843Z,95122.47
2023-02-05T09:05:13.921Z,95146.16
2023-02-05T09:06:14.072Z,95216.84
2023-02-05T09:07:10.910Z,95039.31
2023-02-05T09:08:07.739Z,95206.97
2023-02-05T09:09:07.278Z,94993.03
2023-02-05T09:10:04.460Z,95207.13
2023-02-05T09:11:01.781Z,95197.53
2023-02-05T09:11:58.791Z,95192.78
2023-02-05T09:12:55.699Z,95199.84
2023-02-05T09:13:53.686Z,95162.50
2023-02-05T09:14:50.493Z,95112.84
2023-02-05T09:15:48.817Z,95101.28
2023-02-05T09:16:45.628Z,95202.47
2023-02-05T09:17:42.544Z,95202.09
2023-02-05T09:18:39.766Z,95209.72
2023-02-05T09:19:38.892Z,95229.34
2023-02-05T09:20:41.945Z,95209.53
2023-02-05T09:21:38.753Z,95168.78
2023-02-05T09:22:36.218Z,95190.06
2023-02-05T09:23:33.302Z,95153.00
2023-02-05T09:24:30.246Z,95130.66
2023-02-05T09:25:30.144Z,95237.75
2023-02-05T09:26:27.154Z,95179.59
2023-02-05T09:27:31.356Z,95155.63
2023-02-05T09:28:28.268Z,95181.25
2023-02-05T09:29:25.288Z,94877.84
2023-02-05T09:30:22.184Z,95039.78
2023-02-05T09:31:23.844Z,95224.97
2023-02-05T09:32:20.719Z,94989.00
2023-02-05T09:33:17.830Z,95024.03
2023-02-05T09:34:15.439Z,95107.19
2023-02-05T09:35:12.758Z,95230.44
2023-02-05T09:36:36.110Z,95244.31
2023-02-05T09:37:33.057Z,95219.84
2023-02-05T09:38:29.835Z,95164.44
2023-02-05T09:40:11.902Z,95125.66
2023-02-05T09:40:59.409Z,95123.50
2023-02-05T09:42:27.998Z,95217.16
2023-02-05T09:43:45.912Z,95220.59
2023-02-05T09:44:52.823Z,95132.34
2023-02-05T09:45:54.482Z,95176.91
2023-02-05T09:47:11.036Z,95133.53
2023-02-05T09:48:10.431Z,95224.41
2023-02-05T09:49:29.922Z,95120.53
2023-02-05T09:50:43.898Z,95174.31
2023-02-05T09:51:48.065Z,95223.78
2023-02-05T09:52:51.181Z,95096.03
2023-02-05T09:53:55.153Z,95251.81
2023-02-05T09:55:00.625Z,95038.69
2023-02-05T09:56:00.883Z,95215.22
2023-02-05T09:57:05.812Z,95115.56
2023-02-05T09:58:16.405Z,94894.41
2023-02-05T09:59:18.317Z,95247.63
2023-02-05T10:00:28.666Z,95224.88
2023-02-05T10:01:56.037Z,95215.44
2023-02-05T10:03:06.209Z,95222.88
2023-02-05T10:04:06.213Z,95259.19
2023-02-05T10:05:07.816Z,95134.09
2023-02-05T10:06:11.050Z,95215.56
2023-02-05T10:07:23.778Z,95217.34
2023-02-05T10:09:04.809Z,95168.38
2023-02-05T10:10:24.752Z,95218.41
2023-02-05T10:11:41.773Z,95265.53
2023-02-05T10:13:15.462Z,95219.75
2023-02-05T10:14:53.648Z,95216.47
2023-02-05T10:16:39.685Z,95224.28
2023-02-05T10:18:19.260Z,95224.19
2023-02-05T10:19:38.654Z,95224.47
2023-02-05T10:21:05.948Z,95223.03
2023-02-05T10:22:18.910Z,95096.22
2023-02-05T10:23:37.260Z,95169.56
2023-02-05T10:24:52.366Z,95224.75
2023-02-05T10:25:57.335Z,95223.44
2023-02-05T10:27:13.871Z,95223.03
2023-02-05T10:28:19.621Z,95219.47
2023-02-05T10:29:42.377Z,95219.16
2023-02-05T10:31:09.661Z,95220.56
2023-02-05T10:32:37.858Z,95223.13
2023-02-05T10:33:57.265Z,95233.25
2023-02-05T10:35:05.954Z,95168.44
2023-02-05T10:36:25.588Z,94888.91
2023-02-05T10:37:38.851Z,95259.00
2023-02-05T10:38:54.051Z,95240.16
2023-02-05T10:39:50.823Z,95108.63
2023-02-05T10:41:00.408Z,95025.03
2023-02-05T10:42:32.913Z,94837.78
2023-02-05T10:44:00.685Z,95219.00
2023-02-05T10:45:20.684Z,95183.94
2023-02-05T10:46:18.253Z,95080.59
2023-02-05T10:49:23.130Z,95073.81
2023-02-05T10:50:29.950Z,95166.41
2023-02-05T10:51:40.550Z,95092.50
2023-02-05T10:52:39.637Z,95241.66
2023-02-05T10:53:41.596Z,95099.13
2023-02-05T10:54:42.883Z,94927.38
2023-02-05T10:55:42.422Z,95170.22
2023-02-05T10:56:42.118Z,95237.25
2023-02-05T10:57:41.912Z,95257.28
2023-02-05T10:59:10.298Z,95105.63
2023-02-05T11:00:30.008Z,95163.38
2023-02-05T11:01:34.274Z,95091.66
2023-02-05T11:02:46.684Z,95080.94
2023-02-05T11:04:07.614Z,95173.44
2023-02-05T11:05:26.613Z,95128.44
2023-02-05T11:06:34.316Z,95108.00
2023-02-05T11:07:44.919Z,95227.75
2023-02-05T11:08:44.264Z,95070.22
2023-02-05T11:09:43.919Z,95090.50
2023-02-05T11:10:56.955Z,95241.84
2023-02-05T11:12:32.585Z,95226.00
2023-02-05T11:13:40.769Z,94975.75
2023-02-05T11:14:41.316Z,95026.72
2023-02-05T11:16:13.610Z,95156.31
2023-02-05T11:17:32.825Z,95252.06
2023-02-05T11:18:40.136Z,95109.88
2023-02-05T11:19:40.144Z,94889.16
2023-02-05T11:20:56.351Z,95250.56
2023-02-05T11:22:26.652Z,95000.31
2023-02-05T11:23:28.186Z,95217.28
2023-02-05T11:24:33.813Z,95198.72
2023-02-05T11:25:48.752Z,95091.41
2023-02-05T11:26:47.851Z,95064.34
2023-02-05T11:28:04.052Z,95218.00
2023-02-05T11:29:19.683Z,95231.03
2023-02-05T11:30:52.772Z,95239.75
2023-02-05T11:31:44.671Z,95162.53
2023-02-05T11:32:41.649Z,95234.72
2023-02-05T11:33:38.499Z,95101.91
2023-02-05T11:34:45.540Z,95172.69
2023-02-05T11:36:17.702Z,94983.31
2023-02-05T11:37:19.949Z,94835.13
2023-02-05T11:38:19.525Z,95212.44
2023-02-05T11:39:39.110Z,95213.66
2023-02-05T11:40:40.254Z,95055.81
2023-02-05T11:41:49.077Z,95215.56
2023-02-05T11:43:06.072Z,95154.25
2023-02-05T11:44:07.521Z,95134.94
2023-02-05T11:45:12.349Z,95211.19
2023-02-05T11:46:24.851Z,94837.69
2023-02-05T11:47:49.040Z,95214.25
2023-02-05T11:49:00.205Z,95212.06
2023-02-05T11:50:03.908Z,95048.59
2023-02-05T11:51:06.660Z,95242.47
2023-02-05T11:52:18.731Z,95216.28
2023-02-05T11:53:20.465Z,95082.19
2023-02-05T11:55:42.535Z,95243.19
2023-02-05T11:56:39.371Z,94805.72
2023-02-05T11:57:44.586Z,95161.09
2023-02-05T11:58:43.732Z,95174.66
2023-02-05T11:59:43.683Z,94734.88
2023-02-05T12:00:57.338Z,95246.75
2023-02-05T12:02:30.605Z,95219.72
2023-02-05T12:03:32.458Z,94942.13
2023-02-05T12:04:49.897Z,95241.03
2023-02-05T12:06:02.025Z,94985.59
2023-02-05T12:07:14.870Z,94742.75
2023-02-05T12:08:39.077Z,94489.56
2023-02-05T12:09:38.998Z,94666.81
2023-02-05T12:10:54.294Z,95151.34
2023-02-05T12:12:23.378Z,95158.38